Time,TemperatureF,DewpointF,PressureIn,WindDirection,WindDirectionDegrees,WindSpeedMPH,WindSpeedGustMPH,Humidity,HourlyPrecipIn,Conditions,Clouds,dailyrainin,SoftwareType,DateUTC
2013-04-02 00:03:00,69.0,65.0,30.02,SSW,202,0.0,0.0,87,0.00,,,0.09,,2013-04-02 04:03:00,
2013-04-02 00:13:00,69.0,65.0,30.02,SSW,202,0.0,0.0,87,0.00,,,0.09,,2013-04-02 04:13:00,
2013-04-02 00:23:00,69.0,65.0,30.02,SSW,209,0.0,1.0,87,0.00,,,0.09,,2013-04-02 04:23:00,
2013-04-02 00:33:00,68.0,64.0,30.02,West,259,0.0,2.0,86,0.00,,,0.09,,2013-04-02 04:33:00,
2013-04-02 00:43:00,68.0,64.0,30.02,West,259,0.0,2.0,86,0.00,,,0.09,,2013-04-02 04:43:00,
2013-04-02 00:52:00,68.0,64.0,30.02,West,268,1.0,2.0,87,0.00,,,0.09,,2013-04-02 04:52:00,
2013-04-02 01:02:00,68.0,64.0,30.02,West,270,0.0,0.0,87,0.00,,,0.09,,2013-04-02 05:02:00,
2013-04-02 01:12:00,68.0,64.0,30.02,West,270,0.0,0.0,87,0.00,,,0.09,,2013-04-02 05:12:00,
2013-04-02 01:22:00,68.0,64.0,30.02,WSW,248,0.0,0.0,88,0.00,,,0.09,,2013-04-02 05:22:00,
2013-04-02 01:32:00,68.0,65.0,30.02,NW,321,0.0,1.0,89,0.00,,,0.09,,2013-04-02 05:32:00,
2013-04-02 01:43:00,68.0,65.0,30.02,NW,321,0.0,1.0,89,0.00,,,0.09,,2013-04-02 05:43:00,
2013-04-02 01:52:00,67.0,64.0,30.01,WNW,292,1.0,2.0,90,0.00,,,0.09,,2013-04-02 05:52:00,
2013-04-02 02:02:00,67.0,64.0,30.01,West,272,3.0,5.0,90,0.00,,,0.09,,2013-04-02 06:02:00,
2013-04-02 02:12:00,67.0,64.0,30.01,West,272,3.0,5.0,90,0.00,,,0.09,,2013-04-02 06:12:00,
2013-04-02 02:22:00,67.0,64.0,30.01,SW,225,0.0,2.0,91,0.00,,,0.09,,2013-04-02 06:22:00,
2013-04-02 02:32:00,67.0,65.0,30.01,WSW,256,1.0,3.0,92,0.00,,,0.09,,2013-04-02 06:32:00,
2013-04-02 02:42:00,67.0,65.0,30.01,WSW,256,1.0,3.0,92,0.00,,,0.09,,2013-04-02 06:42:00,
2013-04-02 02:52:00,67.0,65.0,30.00,West,273,0.0,1.0,92,0.00,,,0.09,,2013-04-02 06:52:00,
2013-04-02 03:02:00,66.0,64.0,30.00,NNE,29,1.0,3.0,93,0.00,,,0.09,,2013-04-02 07:02:00,
2013-04-02 03:12:00,66.0,64.0,30.00,NNE,29,1.0,3.0,93,0.00,,,0.09,,2013-04-02 07:12:00,
2013-04-02 03:22:00,66.0,64.0,30.00,West,265,2.0,3.0,94,0.00,,,0.09,,2013-04-02 07:22:00,
2013-04-02 03:32:00,66.0,65.0,30.00,NW,305,0.0,0.0,95,0.00,,,0.09,,2013-04-02 07:32:00,
2013-04-02 03:42:00,66.0,65.0,30.00,NW,305,0.0,0.0,95,0.00,,,0.09,,2013-04-02 07:42:00,
2013-04-02 03:52:00,66.0,65.0,29.99,South,188,0.0,1.0,95,0.00,,,0.09,,2013-04-02 07:52:00,
2013-04-02 04:02:00,66.0,65.0,29.99,SSW,203,3.0,3.0,96,0.00,,,0.09,,2013-04-02 08:02:00,
2013-04-02 04:13:00,66.0,65.0,29.99,SSW,203,3.0,3.0,96,0.00,,,0.09,,2013-04-02 08:13:00,
2013-04-02 04:22:00,66.0,65.0,29.99,West,266,2.0,3.0,96,0.00,,,0.09,,2013-04-02 08:22:00,
2013-04-02 04:32:00,66.0,65.0,29.99,SW,236,2.0,3.0,96,0.00,,,0.09,,2013-04-02 08:32:00,
2013-04-02 04:42:00,66.0,65.0,29.99,SW,236,2.0,3.0,96,0.00,,,0.09,,2013-04-02 08:42:00,
2013-04-02 04:52:00,66.0,65.0,29.98,WNW,287,1.0,2.0,97,0.00,,,0.09,,2013-04-02 08:52:00,
2013-04-02 05:02:00,65.0,64.0,29.99,WSW,245,1.0,3.0,97,0.00,,,0.09,,2013-04-02 09:02:00,
2013-04-02 05:12:00,65.0,64.0,29.99,WSW,245,1.0,3.0,97,0.00,,,0.09,,2013-04-02 09:12:00,
2013-04-02 05:22:00,65.0,64.0,29.99,SE,143,0.0,2.0,97,0.00,,,0.09,,2013-04-02 09:22:00,
2013-04-02 05:32:00,65.0,64.0,29.99,WNW,283,1.0,2.0,97,0.00,,,0.09,,2013-04-02 09:32:00,
2013-04-02 05:43:00,65.0,64.0,29.99,WNW,283,1.0,2.0,97,0.00,,,0.09,,2013-04-02 09:43:00,
2013-04-02 05:52:00,66.0,65.0,30.00,SW,230,2.0,3.0,98,0.00,,,0.09,,2013-04-02 09:52:00,
2013-04-02 06:03:00,66.0,65.0,30.00,North,350,1.0,2.0,98,0.00,,,0.09,,2013-04-02 10:03:00,
2013-04-02 06:13:00,66.0,65.0,30.00,North,350,1.0,2.0,98,0.00,,,0.09,,2013-04-02 10:13:00,
2013-04-02 06:23:00,66.0,65.0,30.00,NNW,332,2.0,3.0,98,0.00,,,0.09,,2013-04-02 10:23:00,
2013-04-02 06:33:00,66.0,65.0,30.01,WSW,252,3.0,5.0,98,0.00,,,0.09,,2013-04-02 10:33:00,
2013-04-02 06:42:00,66.0,65.0,30.01,WSW,252,3.0,5.0,98,0.00,,,0.09,,2013-04-02 10:42:00,
2013-04-02 06:52:00,66.0,65.0,30.01,SW,230,2.0,3.0,98,0.00,,,0.09,,2013-04-02 10:52:00,
2013-04-02 07:02:00,66.0,65.0,30.01,West,268,0.0,2.0,98,0.00,,,0.09,,2013-04-02 11:02:00,
2013-04-02 07:12:00,66.0,65.0,30.01,West,268,0.0,2.0,98,0.00,,,0.09,,2013-04-02 11:12:00,
2013-04-02 07:22:00,66.0,65.0,30.02,SW,234,2.0,3.0,98,0.00,,,0.09,,2013-04-02 11:22:00,
2013-04-02 07:33:00,66.0,65.0,30.02,East,81,2.0,3.0,98,0.00,,,0.09,,2013-04-02 11:33:00,
2013-04-02 07:43:00,66.0,65.0,30.02,East,81,2.0,3.0,98,0.00,,,0.09,,2013-04-02 11:43:00,
2013-04-02 07:52:00,66.0,65.0,30.03,SW,226,1.0,5.0,98,0.00,,,0.09,,2013-04-02 11:52:00,
2013-04-02 08:02:00,66.0,65.0,30.04,West,278,0.0,3.0,98,0.00,,,0.09,,2013-04-02 12:02:00,
2013-04-02 08:12:00,66.0,65.0,30.04,West,278,0.0,3.0,98,0.00,,,0.09,,2013-04-02 12:12:00,
2013-04-02 08:23:00,67.0,66.0,30.04,NNE,18,1.0,3.0,98,0.00,,,0.09,,2013-04-02 12:23:00,
2013-04-02 08:32:00,67.0,66.0,30.05,SW,234,3.0,6.0,98,0.00,,,0.09,,2013-04-02 12:32:00,
2013-04-02 08:42:00,67.0,66.0,30.05,SW,234,3.0,6.0,98,0.00,,,0.09,,2013-04-02 12:42:00,
2013-04-02 08:52:00,69.0,68.0,30.06,WNW,291,0.0,5.0,95,0.00,,,0.09,,2013-04-02 12:52:00,
2013-04-02 09:02:00,71.0,68.0,30.06,South,188,1.0,5.0,89,0.00,,,0.09,,2013-04-02 13:02:00,
2013-04-02 09:12:00,74.0,67.0,30.06,NNW,347,5.0,7.0,80,0.00,,,0.09,,2013-04-02 13:12:00,
2013-04-02 09:22:00,74.0,67.0,30.06,NNW,347,5.0,7.0,80,0.00,,,0.09,,2013-04-02 13:22:00,
2013-04-02 09:33:00,74.0,67.0,30.07,North,5,3.0,6.0,80,0.00,,,0.09,,2013-04-02 13:33:00,
2013-04-02 09:42:00,74.0,67.0,30.07,North,5,3.0,6.0,80,0.00,,,0.09,,2013-04-02 13:42:00,
2013-04-02 09:52:00,75.0,67.0,30.07,West,275,3.0,7.0,77,0.00,,,0.09,,2013-04-02 13:52:00,
2013-04-02 10:02:00,76.0,67.0,30.07,NNE,22,3.0,7.0,73,0.00,,,0.09,,2013-04-02 14:02:00,
2013-04-02 10:12:00,76.0,67.0,30.07,NNE,22,3.0,7.0,73,0.00,,,0.09,,2013-04-02 14:12:00,
2013-04-02 10:23:00,77.0,67.0,30.07,South,175,2.0,6.0,71,0.00,,,0.09,,2013-04-02 14:23:00,
2013-04-02 10:32:00,78.0,66.0,30.07,NNE,33,2.0,5.0,67,0.00,,,0.09,,2013-04-02 14:32:00,
2013-04-02 10:42:00,78.0,66.0,30.07,NNE,33,2.0,5.0,67,0.00,,,0.09,,2013-04-02 14:42:00,
2013-04-02 10:52:00,79.0,66.0,30.07,North,5,5.0,7.0,64,0.00,,,0.09,,2013-04-02 14:52:00,
2013-04-02 11:02:00,81.0,67.0,30.07,SSE,147,3.0,5.0,63,0.00,,,0.09,,2013-04-02 15:02:00,
2013-04-02 11:11:00,81.0,67.0,30.07,SSE,147,3.0,5.0,63,0.00,,,0.09,,2013-04-02 15:11:00,
2013-04-02 11:22:00,81.0,67.0,30.07,NW,317,3.0,5.0,62,0.00,,,0.09,,2013-04-02 15:22:00,
2013-04-02 11:33:00,81.0,66.0,30.07,WNW,288,1.0,3.0,61,0.00,,,0.09,,2013-04-02 15:33:00,
2013-04-02 11:43:00,81.0,66.0,30.07,WNW,288,1.0,3.0,61,0.00,,,0.09,,2013-04-02 15:43:00,
2013-04-02 11:58:00,82.0,67.0,30.07,WSW,256,1.0,3.0,60,0.00,,,0.09,,2013-04-02 15:58:00,
2013-04-02 12:04:00,83.0,67.0,30.07,SSW,198,2.0,6.0,58,0.00,,,0.09,,2013-04-02 16:04:00,
2013-04-02 12:13:00,83.0,67.0,30.07,SSW,198,2.0,6.0,58,0.00,,,0.09,,2013-04-02 16:13:00,
2013-04-02 12:24:00,82.0,68.0,30.07,ESE,112,4.0,6.0,63,0.00,,,0.09,,2013-04-02 16:24:00,
2013-04-02 12:37:00,83.0,68.0,30.07,West,268,3.0,5.0,60,0.00,,,0.09,,2013-04-02 16:37:00,
2013-04-02 12:44:00,83.0,68.0,30.07,West,268,3.0,5.0,60,0.00,,,0.09,,2013-04-02 16:44:00,
2013-04-02 12:53:00,82.0,67.0,30.08,ESE,110,5.0,7.0,61,0.00,,,0.09,,2013-04-02 16:53:00,
2013-04-02 13:13:00,84.0,68.0,30.07,ESE,116,4.0,7.0,58,0.00,,,0.09,,2013-04-02 17:13:00,
2013-04-02 13:25:00,84.0,68.0,30.07,East,79,5.0,7.0,58,0.00,,,0.09,,2013-04-02 17:25:00,
2013-04-02 13:43:00,83.0,67.0,30.06,North,0,4.0,8.0,58,0.00,,,0.09,,2013-04-02 17:43:00,
2013-04-02 13:56:00,84.0,67.0,30.06,NW,323,7.0,8.0,56,0.00,,,0.09,,2013-04-02 17:56:00,
2013-04-02 14:04:00,84.0,66.0,30.05,North,5,5.0,7.0,54,0.00,,,0.09,,2013-04-02 18:04:00,
2013-04-02 14:12:00,84.0,66.0,30.05,North,5,5.0,7.0,54,0.00,,,0.09,,2013-04-02 18:12:00,
2013-04-02 14:23:00,83.0,66.0,30.05,WNW,292,3.0,8.0,56,0.00,,,0.09,,2013-04-02 18:23:00,
2013-04-02 14:34:00,84.0,67.0,30.05,East,98,5.0,7.0,56,0.00,,,0.09,,2013-04-02 18:34:00,
2013-04-02 14:43:00,84.0,67.0,30.05,East,98,5.0,7.0,56,0.00,,,0.09,,2013-04-02 18:43:00,
2013-04-02 14:57:00,85.0,66.0,30.04,ESE,112,5.0,7.0,54,0.00,,,0.09,,2013-04-02 18:57:00,
2013-04-02 15:03:00,84.0,66.0,30.04,West,278,3.0,6.0,55,0.00,,,0.09,,2013-04-02 19:03:00,
2013-04-02 15:13:00,84.0,66.0,30.04,West,278,3.0,6.0,55,0.00,,,0.09,,2013-04-02 19:13:00,
2013-04-02 15:23:00,84.0,66.0,30.03,ESE,106,5.0,7.0,54,0.00,,,0.09,,2013-04-02 19:23:00,
2013-04-02 15:34:00,85.0,66.0,30.03,SSW,196,4.0,8.0,54,0.00,,,0.09,,2013-04-02 19:34:00,
2013-04-02 15:45:00,85.0,66.0,30.03,SSW,196,4.0,8.0,54,0.00,,,0.09,,2013-04-02 19:45:00,
2013-04-02 15:57:00,84.0,67.0,30.03,NE,45,3.0,7.0,56,0.00,,,0.09,,2013-04-02 19:57:00,
2013-04-02 16:03:00,83.0,67.0,30.03,SSE,148,4.0,8.0,59,0.00,,,0.09,,2013-04-02 20:03:00,
2013-04-02 16:13:00,83.0,67.0,30.03,SSE,148,4.0,8.0,59,0.00,,,0.09,,2013-04-02 20:13:00,
2013-04-02 16:22:00,83.0,67.0,30.03,NE,44,4.0,7.0,58,0.00,,,0.09,,2013-04-02 20:22:00,
2013-04-02 16:33:00,84.0,68.0,30.02,NNW,347,3.0,7.0,59,0.00,,,0.09,,2013-04-02 20:33:00,
2013-04-02 16:44:00,84.0,68.0,30.02,NNW,347,3.0,7.0,59,0.00,,,0.09,,2013-04-02 20:44:00,
2013-04-02 16:55:00,84.0,68.0,30.02,NNW,347,3.0,7.0,59,0.00,,,0.09,,2013-04-02 20:55:00,
2013-04-02 17:04:00,82.0,68.0,30.02,NNE,14,5.0,8.0,62,0.00,,,0.00,,2013-04-02 21:04:00,
2013-04-02 17:13:00,82.0,68.0,30.02,NNE,14,5.0,8.0,62,0.00,,,0.00,,2013-04-02 21:13:00,
2013-04-02 17:23:00,82.0,69.0,30.02,East,79,6.0,8.0,64,0.00,,,0.00,,2013-04-02 21:23:00,
2013-04-02 17:35:00,82.0,69.0,30.02,WNW,297,3.0,7.0,64,0.00,,,0.00,,2013-04-02 21:35:00,
2013-04-02 17:44:00,82.0,69.0,30.02,WNW,297,3.0,7.0,64,0.00,,,0.00,,2013-04-02 21:44:00,
2013-04-02 17:56:00,81.0,67.0,30.02,ENE,64,5.0,9.0,63,0.00,,,0.00,,2013-04-02 21:56:00,
2013-04-02 18:04:00,81.0,69.0,30.02,ESE,107,4.0,8.0,66,0.00,,,0.00,,2013-04-02 22:04:00,
2013-04-02 18:14:00,81.0,69.0,30.02,ESE,107,4.0,8.0,66,0.00,,,0.00,,2013-04-02 22:14:00,
2013-04-02 18:24:00,81.0,69.0,30.02,ESE,107,4.0,8.0,66,0.00,,,0.00,,2013-04-02 22:24:00,
2013-04-02 18:33:00,83.0,68.0,30.03,North,10,4.0,7.0,60,0.00,,,0.00,,2013-04-02 22:33:00,
2013-04-02 18:43:00,83.0,68.0,30.03,North,10,4.0,7.0,60,0.00,,,0.00,,2013-04-02 22:43:00,
2013-04-02 18:54:00,82.0,68.0,30.02,North,349,5.0,6.0,62,0.00,,,0.00,,2013-04-02 22:54:00,
2013-04-02 19:03:00,80.0,68.0,30.02,ENE,61,4.0,8.0,66,0.00,,,0.00,,2013-04-02 23:03:00,
2013-04-02 19:13:00,78.0,67.0,30.02,NNE,14,4.0,5.0,70,0.00,,,0.00,,2013-04-02 23:13:00,
2013-04-02 19:23:00,78.0,67.0,30.02,NNE,14,4.0,5.0,70,0.00,,,0.00,,2013-04-02 23:23:00,
2013-04-02 19:35:00,77.0,68.0,30.03,East,84,3.0,6.0,73,0.00,,,0.00,,2013-04-02 23:35:00,
2013-04-02 19:43:00,77.0,68.0,30.03,East,84,3.0,6.0,73,0.00,,,0.00,,2013-04-02 23:43:00,
2013-04-02 19:54:00,76.0,67.0,30.03,North,11,2.0,6.0,74,0.00,,,0.00,,2013-04-02 23:54:00,
2013-04-02 20:04:00,75.0,67.0,30.03,NNW,341,3.0,5.0,76,0.00,,,0.00,,2013-04-03 00:04:00,
2013-04-02 20:13:00,75.0,67.0,30.03,NNW,341,3.0,5.0,76,0.00,,,0.00,,2013-04-03 00:13:00,
2013-04-02 20:25:00,75.0,68.0,30.03,NE,47,3.0,6.0,78,0.00,,,0.00,,2013-04-03 00:25:00,
2013-04-02 20:33:00,74.0,67.0,30.04,NW,324,1.0,3.0,79,0.00,,,0.00,,2013-04-03 00:33:00,
2013-04-02 20:47:00,74.0,67.0,30.04,NW,324,1.0,3.0,79,0.00,,,0.00,,2013-04-03 00:47:00,
2013-04-02 20:57:00,74.0,67.0,30.04,North,6,4.0,7.0,80,0.00,,,0.00,,2013-04-03 00:57:00,
2013-04-02 21:04:00,74.0,67.0,30.04,NNW,345,2.0,5.0,80,0.00,,,0.00,,2013-04-03 01:04:00,
2013-04-02 21:13:00,74.0,67.0,30.04,NNW,345,2.0,5.0,80,0.00,,,0.00,,2013-04-03 01:13:00,
2013-04-02 21:23:00,74.0,67.0,30.05,ENE,64,3.0,6.0,80,0.00,,,0.00,,2013-04-03 01:23:00,
2013-04-02 21:33:00,74.0,67.0,30.05,SE,144,1.0,7.0,80,0.00,,,0.00,,2013-04-03 01:33:00,
2013-04-02 21:42:00,74.0,67.0,30.05,SE,144,1.0,7.0,80,0.00,,,0.00,,2013-04-03 01:42:00,
2013-04-02 21:54:00,74.0,67.0,30.05,NE,41,2.0,5.0,80,0.00,,,0.00,,2013-04-03 01:54:00,
2013-04-02 22:03:00,74.0,67.0,30.06,East,100,1.0,3.0,80,0.00,,,0.00,,2013-04-03 02:03:00,
2013-04-02 22:13:00,74.0,67.0,30.06,East,100,1.0,3.0,80,0.00,,,0.00,,2013-04-03 02:13:00,
2013-04-02 22:24:00,74.0,68.0,30.06,West,264,3.0,5.0,81,0.00,,,0.00,,2013-04-03 02:24:00,
2013-04-02 22:34:00,74.0,68.0,30.06,SSW,198,2.0,3.0,81,0.00,,,0.00,,2013-04-03 02:34:00,
2013-04-02 22:44:00,74.0,68.0,30.06,SSW,198,2.0,3.0,81,0.00,,,0.00,,2013-04-03 02:44:00,
2013-04-02 22:53:00,74.0,68.0,30.07,NNE,22,1.0,2.0,81,0.00,,,0.00,,2013-04-03 02:53:00,
2013-04-02 23:05:00,74.0,68.0,30.07,East,88,1.0,2.0,81,0.00,,,0.00,,2013-04-03 03:05:00,
2013-04-02 23:14:00,74.0,68.0,30.07,East,88,1.0,2.0,81,0.00,,,0.00,,2013-04-03 03:14:00,
2013-04-02 23:23:00,74.0,68.0,30.06,SW,236,3.0,6.0,81,0.00,,,0.00,,2013-04-03 03:23:00,
2013-04-02 23:37:00,74.0,68.0,30.07,NNE,31,3.0,5.0,82,0.00,,,0.00,,2013-04-03 03:37:00,
2013-04-02 23:44:00,74.0,68.0,30.07,NNE,31,3.0,5.0,82,0.00,,,0.00,,2013-04-03 03:44:00,
2013-04-02 23:54:00,73.0,68.0,30.06,NE,40,2.0,7.0,83,0.00,,,0.00,,2013-04-03 03:54:00,